Time;durP1;ratioP1;P1;durP2;ratioP2;P2;SDS_P1;SDS_P2;PMS_P1;PMS_P2;Temp;Humidity;BMP_temperature;BMP_pressure;BME280_temperature;BME280_humidity;BME280_pressure;Samples;Min_cycle;Max_cycle;Signal;HPM_P1;HPM_P2
2021/08/10 00:01:32;;;;;;;11.35;4.90;;;;;;;14.95;75.17;99310.81;2174901;81;20894;-78
2021/08/10 00:04:33;;;;;;;6.78;4.35;;;;;;;14.97;75.25;99319.58;2172579;82;21488;-79
2021/08/10 00:07:33;;;;;;;39.60;6.92;;;;;;;14.96;75.29;99311.25;2173319;81;20925;-80
2021/08/10 00:10:34;;;;;;;11.50;4.87;;;;;;;14.91;75.33;99300.73;2178292;81;21372;-80
2021/08/10 00:13:34;;;;;;;7.10;4.55;;;;;;;14.90;75.52;99298.10;2173088;81;20965;-80
2021/08/10 00:16:35;;;;;;;11.88;4.60;;;;;;;14.87;75.58;99291.09;2177039;81;20996;-79
2021/08/10 00:19:35;;;;;;;7.15;4.70;;;;;;;14.90;75.80;99290.22;2172946;81;20972;-79
2021/08/10 00:22:36;;;;;;;6.65;4.58;;;;;;;14.98;75.85;99306.87;2172685;82;20949;-78
2021/08/10 00:25:36;;;;;;;9.48;5.00;;;;;;;15.03;75.71;99304.25;2172718;81;20992;-79
2021/08/10 00:28:37;;;;;;;8.90;4.95;;;;;;;15.02;75.55;99297.24;2172632;82;20956;-79
2021/08/10 00:31:37;;;;;;;9.40;5.17;;;;;;;15.00;75.64;99299.87;2172672;81;20925;-78
2021/08/10 00:34:38;;;;;;;10.93;5.15;;;;;;;15.01;75.83;99304.69;2172664;81;20914;-79
2021/08/10 00:37:38;;;;;;;15.88;4.85;;;;;;;15.03;75.89;99297.24;2172673;82;21317;-79
2021/08/10 00:40:39;;;;;;;11.90;4.70;;;;;;;15.04;75.98;99296.37;2176258;81;21380;-79
2021/08/10 00:43:39;;;;;;;11.63;5.03;;;;;;;15.09;76.21;99297.25;2170381;82;20992;-80
2021/08/10 00:46:40;;;;;;;5.85;4.17;;;;;;;15.15;76.14;99295.06;2170342;81;20949;-79
2021/08/10 00:49:40;;;;;;;7.25;4.03;;;;;;;15.21;76.04;99299.89;2170153;81;20949;-79
2021/08/10 00:52:41;;;;;;;7.87;4.40;;;;;;;15.18;76.10;99299.89;2170107;81;21357;-79
2021/08/10 00:55:41;;;;;;;7.12;4.25;;;;;;;15.18;76.16;99297.69;2170277;81;20985;-78
2021/08/10 00:58:41;;;;;;;11.35;4.37;;;;;;;15.17;76.29;99294.19;2170324;81;20965;-79
2021/08/10 01:01:42;;;;;;;8.35;4.00;;;;;;;15.17;76.31;99286.30;2170667;81;20941;-79
2021/08/10 01:04:42;;;;;;;10.15;4.10;;;;;;;15.19;76.41;99288.48;2170080;82;21024;-79
2021/08/10 01:07:43;;;;;;;8.15;4.05;;;;;;;15.18;76.43;99286.73;2169933;81;20949;-79
2021/08/10 01:10:44;;;;;;;5.25;3.83;;;;;;;15.21;76.41;99285.42;2170017;82;21416;-79
2021/08/10 01:13:44;;;;;;;25.85;5.03;;;;;;;15.25;76.52;99293.75;2170288;81;21620;-80
2021/08/10 01:16:45;;;;;;;6.87;4.03;;;;;;;15.29;76.47;99294.63;2170458;81;21326;-79
2021/08/10 01:19:45;;;;;;;4.30;3.80;;;;;;;15.35;76.37;99293.75;2170402;81;20992;-79
2021/08/10 01:22:47;;;;;;;6.33;3.90;;;;;;;15.43;76.35;99297.25;2170001;81;20956;-79
2021/08/10 01:25:47;;;;;;;9.15;4.90;;;;;;;15.43;76.18;99290.67;2170236;81;21377;-80
2021/08/10 01:28:48;;;;;;;9.08;4.70;;;;;;;15.40;76.22;99289.36;2169984;81;20965;-79
2021/08/10 01:31:48;;;;;;;9.35;5.08;;;;;;;15.39;76.18;99282.34;2170339;81;21278;-78
2021/08/10 01:34:49;;;;;;;4.90;3.90;;;;;;;15.38;76.26;99283.23;2170342;81;20988;-79
2021/08/10 01:37:50;;;;;;;4.78;3.55;;;;;;;15.37;76.29;99292.87;2170145;82;20983;-79
2021/08/10 01:40:50;;;;;;;7.92;4.03;;;;;;;15.32;76.30;99267.45;2171113;81;21071;-79
2021/08/10 01:43:51;;;;;;;6.80;3.85;;;;;;;15.26;76.40;99263.95;2172136;81;20996;-80
2021/08/10 01:46:51;;;;;;;9.55;4.65;;;;;;;15.24;76.59;99268.33;2172403;82;20961;-81
2021/08/10 01:49:52;;;;;;;11.48;3.87;;;;;;;15.25;76.73;99267.89;2172546;81;21376;-80
2021/08/10 01:52:52;;;;;;;8.30;3.87;;;;;;;15.24;76.61;99268.77;2172718;81;21353;-80
2021/08/10 01:55:53;;;;;;;6.10;4.25;;;;;;;15.19;76.48;99266.58;2172590;81;20961;-80
2021/08/10 01:58:55;;;;;;;9.03;4.20;;;;;;;15.13;76.62;99259.56;2172135;81;20996;-80
2021/08/10 02:01:56;;;;;;;6.50;4.33;;;;;;;15.16;76.79;99257.38;2172222;82;20948;-80
2021/08/10 02:04:56;;;;;;;10.50;4.80;;;;;;;15.16;76.66;99266.58;2172169;81;20976;-79
2021/08/10 02:07:56;;;;;;;7.25;4.00;;;;;;;15.11;76.68;99266.58;2172385;81;20976;-79
2021/08/10 02:10:57;;;;;;;10.18;4.83;;;;;;;15.09;76.81;99276.22;2172302;81;21412;-79
2021/08/10 02:13:57;;;;;;;12.70;4.50;;;;;;;15.15;77.10;99273.59;2172421;81;20956;-79
2021/08/10 02:16:58;;;;;;;10.70;4.45;;;;;;;15.21;77.14;99276.66;2172213;82;20957;-79
2021/08/10 02:19:59;;;;;;;64.42;9.95;;;;;;;15.23;77.12;99281.04;2172427;82;20977;-79
2021/08/10 02:22:59;;;;;;;9.73;4.17;;;;;;;15.28;77.15;99276.66;2172259;82;20943;-80
2021/08/10 02:26:00;;;;;;;7.60;4.00;;;;;;;15.32;77.07;99268.33;2172407;81;20890;-80
2021/08/10 02:29:00;;;;;;;29.57;5.08;;;;;;;15.27;77.05;99267.02;2172459;81;20964;-81
2021/08/10 02:32:00;;;;;;;12.80;4.35;;;;;;;15.24;77.14;99264.83;2172606;81;20917;-79
2021/08/10 02:35:01;;;;;;;10.08;4.20;;;;;;;15.22;77.36;99270.08;2172267;82;20952;-80
2021/08/10 02:38:02;;;;;;;5.78;4.03;;;;;;;15.24;77.39;99269.64;2172442;82;20945;-80
2021/08/10 02:41:02;;;;;;;6.85;3.90;;;;;;;15.29;77.45;99267.89;2175889;81;21039;-79
2021/08/10 02:44:03;;;;;;;7.87;4.37;;;;;;;15.28;77.30;99263.50;2170718;81;21008;-79
2021/08/10 02:47:04;;;;;;;6.75;4.22;;;;;;;15.26;77.19;99257.81;2170328;82;20992;-80
2021/08/10 02:50:04;;;;;;;8.95;4.65;;;;;;;15.20;77.19;99257.38;2170054;81;20953;-79
2021/08/10 02:53:05;;;;;;;6.83;4.20;;;;;;;15.20;77.41;99265.70;2170136;82;20964;-79
2021/08/10 02:56:05;;;;;;;11.50;4.53;;;;;;;15.19;77.49;99259.56;2170354;82;20964;-79
2021/08/10 02:59:06;;;;;;;8.18;4.75;;;;;;;15.16;77.56;99262.63;2169805;81;21425;-79
2021/08/10 03:02:06;;;;;;;6.83;4.33;;;;;;;15.13;77.44;99265.27;2170316;80;20952;-80
2021/08/10 03:05:07;;;;;;;8.73;4.00;;;;;;;15.08;77.41;99269.64;2170081;81;20981;-79
2021/08/10 03:08:08;;;;;;;5.40;3.80;;;;;;;15.06;77.68;99272.27;2169958;82;20957;-79
2021/08/10 03:11:09;;;;;;;7.15;4.25;;;;;;;15.06;77.84;99268.77;2169842;82;21069;-80
2021/08/10 03:14:09;;;;;;;47.27;7.75;;;;;;;15.02;77.83;99262.63;2170311;81;20996;-79
2021/08/10 03:17:10;;;;;;;42.43;6.08;;;;;;;15.06;78.16;99259.13;2169792;82;21024;-79
2021/08/10 03:20:10;;;;;;;10.53;4.70;;;;;;;15.10;78.35;99262.20;2170631;80;20925;-79
2021/08/10 03:23:11;;;;;;;10.43;5.22;;;;;;;15.08;77.96;99262.63;2170266;81;21043;-81
2021/08/10 03:26:11;;;;;;;8.05;4.87;;;;;;;15.01;77.93;99264.82;2169949;81;20988;-78
2021/08/10 03:29:12;;;;;;;12.60;5.35;;;;;;;14.96;78.24;99267.45;2170273;81;21340;-79
2021/08/10 03:32:12;;;;;;;6.78;5.20;;;;;;;15.01;78.51;99274.45;2170319;81;20969;-80
2021/08/10 03:35:13;;;;;;;11.30;4.15;;;;;;;15.05;78.68;99274.90;2170305;82;21004;-79
2021/08/10 03:38:13;;;;;;;17.62;6.83;;;;;;;14.98;77.84;99270.08;2170543;80;20980;-79
2021/08/10 03:41:14;;;;;;;13.45;5.20;;;;;;;14.96;78.56;99282.34;2169813;81;21491;-77
2021/08/10 03:44:14;;;;;;;11.53;6.30;;;;;;;14.98;78.86;99271.39;2169772;82;21052;-79
2021/08/10 03:47:15;;;;;;;17.55;5.58;;;;;;;14.96;79.62;99270.51;2169260;81;21340;-77
2021/08/10 03:50:15;;;;;;;9.25;5.25;;;;;;;14.90;78.78;99262.18;2169476;81;20945;-77
2021/08/10 03:53:16;;;;;;;6.80;4.58;;;;;;;14.88;78.53;99266.56;2169454;81;21036;-77
2021/08/10 03:56:17;;;;;;;9.03;4.60;;;;;;;14.89;78.51;99262.18;2172059;81;20972;-77
2021/08/10 03:59:18;;;;;;;5.85;5.03;;;;;;;14.93;78.51;99260.87;2171092;81;20953;-77
2021/08/10 04:02:18;;;;;;;9.10;5.30;;;;;;;14.95;78.40;99263.50;2172098;81;20941;-78
2021/08/10 04:05:19;;;;;;;9.98;5.58;;;;;;;14.90;78.27;99258.67;2171011;81;20981;-77
2021/08/10 04:08:21;;;;;;;48.45;8.78;;;;;;;14.94;78.43;99263.06;2171077;81;21289;-77
2021/08/10 04:11:23;;;;;;;15.13;5.83;;;;;;;14.97;78.50;99260.44;2169839;81;21019;-78
2021/08/10 04:14:23;;;;;;;8.95;5.10;;;;;;;15.07;78.38;99260.00;2169877;82;20953;-77
2021/08/10 04:17:24;;;;;;;61.68;8.63;;;;;;;15.17;78.26;99251.23;2170497;82;20929;-81
2021/08/10 04:20:25;;;;;;;45.00;7.72;;;;;;;16.22;81.39;99248.42;2169638;81;20997;-80
2021/08/10 04:23:26;;;;;;;19.37;5.87;;;;;;;17.68;78.39;99244.83;2170737;81;21032;-80
2021/08/10 04:26:26;;;;;;;60.03;8.73;;;;;;;18.65;75.16;99236.64;2170802;81;20952;-81
2021/08/10 04:29:27;;;;;;;62.78;10.08;;;;;;;19.28;71.55;99242.72;2172090;81;20963;-81
2021/08/10 04:32:27;;;;;;;261.85;23.38;;;;;;;19.64;69.60;99242.55;2171476;81;20944;-80
2021/08/10 04:35:28;;;;;;;21.73;6.20;;;;;;;19.85;68.69;99233.78;2170350;82;20957;-81
2021/08/10 04:38:28;;;;;;;24.37;6.17;;;;;;;19.95;68.01;99237.58;2171724;81;21360;-81
2021/08/10 04:41:29;;;;;;;26.57;7.40;;;;;;;20.24;67.25;99240.95;2175679;81;21019;-80
2021/08/10 04:44:29;;;;;;;27.60;6.45;;;;;;;20.45;66.04;99232.16;2177610;81;21004;-81
2021/08/10 04:47:30;;;;;;;46.88;6.85;;;;;;;20.56;65.01;99235.44;2170297;81;20972;-80
2021/08/10 04:50:30;;;;;;;9.58;4.95;;;;;;;20.49;64.72;99241.34;2169866;81;20984;-81
2021/08/10 04:53:31;;;;;;;97.08;9.35;;;;;;;20.22;64.57;99245.87;2169883;81;21440;-82
2021/08/10 04:56:31;;;;;;;7.05;4.70;;;;;;;19.99;65.35;99251.18;2169918;82;20948;-81
2021/08/10 04:59:32;;;;;;;11.43;4.47;;;;;;;19.97;65.38;99252.12;2169711;81;21029;-80
2021/08/10 05:02:32;;;;;;;8.93;5.33;;;;;;;20.13;66.05;99254.88;2169975;81;20916;-81
2021/08/10 05:05:33;;;;;;;8.08;5.03;;;;;;;20.39;65.49;99248.16;2169739;81;20953;-80
2021/08/10 05:08:33;;;;;;;9.60;4.97;;;;;;;20.65;65.25;99242.73;2169202;82;21000;-81
2021/08/10 05:11:34;;;;;;;12.07;5.33;;;;;;;21.07;64.63;99249.31;2169670;82;21090;-82
2021/08/10 05:14:34;;;;;;;14.25;5.53;;;;;;;21.42;63.57;99245.81;2171094;81;21013;-81
2021/08/10 05:17:35;;;;;;;13.80;5.37;;;;;;;21.70;62.80;99239.81;2170856;82;20953;-81
2021/08/10 05:20:35;;;;;;;5.65;4.30;;;;;;;21.92;62.23;99234.31;2170563;81;21424;-81
2021/08/10 05:23:36;;;;;;;8.28;4.60;;;;;;;21.98;61.80;99224.84;2171143;82;21004;-81
2021/08/10 05:26:37;;;;;;;254.05;22.77;;;;;;;21.97;61.81;99228.42;2169625;81;21044;-80
2021/08/10 05:29:37;;;;;;;47.17;7.40;;;;;;;21.45;61.97;99229.80;2171037;81;20993;-81
2021/08/10 05:32:40;;;;;;;10.13;4.75;;;;;;;21.79;63.10;99232.91;2161691;82;21024;-80
2021/08/10 05:35:40;;;;;;;25.23;6.10;;;;;;;22.05;62.19;99238.41;2171410;81;21024;-80
2021/08/10 05:38:43;;;;;;;19.05;6.15;;;;;;;21.85;62.07;99243.38;2171662;81;20976;-81
2021/08/10 05:41:43;;;;;;;17.52;6.08;;;;;;;21.96;61.78;99245.73;2128964;82;21087;-81
2021/08/10 05:44:46;;;;;;;40.17;7.62;;;;;;;21.69;61.30;99248.69;2129385;83;21038;-79
2021/08/10 05:47:47;;;;;;;20.65;6.12;;;;;;;21.41;61.77;99246.72;2128725;84;20956;-80
2021/08/10 05:50:48;;;;;;;13.58;5.47;;;;;;;21.37;62.45;99252.15;2128798;84;20988;-80
2021/08/10 05:53:48;;;;;;;11.63;5.20;;;;;;;21.61;62.22;99252.39;2128845;83;21031;-80
2021/08/10 05:56:49;;;;;;;20.37;5.15;;;;;;;21.91;62.52;99245.41;2128686;83;21003;-81
2021/08/10 05:59:49;;;;;;;11.28;5.58;;;;;;;22.17;62.34;99239.84;2128529;84;21019;-81
2021/08/10 06:02:50;;;;;;;13.32;5.42;;;;;;;22.81;62.21;99240.17;2128532;84;20949;-81
2021/08/10 06:05:53;;;;;;;12.37;5.45;;;;;;;23.39;60.50;99246.26;2128611;83;21108;-80
2021/08/10 06:08:54;;;;;;;9.70;4.60;;;;;;;24.23;58.00;99244.66;2127987;83;21039;-81
2021/08/10 06:11:54;;;;;;;64.70;9.65;;;;;;;24.23;58.00;99244.66;2127634;84;21020;-81
2021/08/10 06:14:55;;;;;;;13.32;4.37;;;;;;;24.46;57.20;99242.52;2128917;84;21447;-79
2021/08/10 06:17:55;;;;;;;14.40;5.75;;;;;;;24.68;55.96;99238.09;2128488;83;20988;-81
2021/08/10 06:20:56;;;;;;;11.95;4.83;;;;;;;24.89;55.59;99236.38;2128133;84;21001;-81
2021/08/10 06:23:56;;;;;;;8.75;4.58;;;;;;;25.01;55.29;99242.59;2128225;84;21027;-82
2021/08/10 06:26:57;;;;;;;9.43;4.90;;;;;;;25.26;54.76;99235.81;2128834;83;21360;-82
2021/08/10 06:29:58;;;;;;;11.08;4.37;;;;;;;25.46;54.36;99237.64;2128256;84;20968;-81
2021/08/10 06:32:58;;;;;;;9.43;4.28;;;;;;;25.69;54.06;99232.67;2128592;83;20991;-80
2021/08/10 06:35:59;;;;;;;9.70;4.42;;;;;;;25.83;52.86;99230.73;2128524;84;20976;-80
2021/08/10 06:38:59;;;;;;;6.22;3.95;;;;;;;25.85;52.13;99229.73;2128223;83;20974;-81
2021/08/10 06:42:00;;;;;;;7.95;4.12;;;;;;;25.95;51.86;99229.72;2125432;84;21412;-80
2021/08/10 06:45:00;;;;;;;6.10;4.12;;;;;;;26.06;51.70;99235.09;2124571;84;20980;-80
2021/08/10 06:48:01;;;;;;;7.72;3.92;;;;;;;26.06;51.10;99231.08;2127069;84;21445;-80
2021/08/10 06:51:02;;;;;;;16.87;4.15;;;;;;;26.16;51.08;99228.39;2127894;83;21088;-82
2021/08/10 06:54:02;;;;;;;90.10;9.63;;;;;;;26.26;51.14;99225.69;2127257;84;20928;-81
2021/08/10 06:57:06;;;;;;;7.50;3.55;;;;;;;26.41;51.03;99219.66;2128018;83;20976;-80
2021/08/10 07:00:09;;;;;;;5.03;3.75;;;;;;;26.56;50.00;99222.95;2127706;83;21438;-80
2021/08/10 07:03:10;;;;;;;7.22;3.77;;;;;;;26.64;49.17;99223.46;2128133;84;20979;-81
2021/08/10 07:06:11;;;;;;;4.28;3.50;;;;;;;26.70;49.26;99227.66;2128774;84;21044;-80
2021/08/10 07:09:12;;;;;;;4.80;3.40;;;;;;;26.80;49.40;99232.09;2129446;83;20991;-80
2021/08/10 07:12:15;;;;;;;3.60;3.30;;;;;;;26.96;48.82;99239.83;2108258;84;21003;-78
2021/08/10 07:15:15;;;;;;;3.37;3.08;;;;;;;26.81;48.05;99228.48;2130173;84;20964;-79
2021/08/10 07:18:16;;;;;;;3.52;3.08;;;;;;;26.72;48.61;99227.58;2129235;84;21340;-80
2021/08/10 07:21:17;;;;;;;5.65;3.40;;;;;;;26.85;48.45;99226.05;2129191;84;21004;-81
2021/08/10 07:24:19;;;;;;;16.12;3.90;;;;;;;26.93;47.95;99232.80;2130129;83;21003;-82
2021/08/10 07:27:20;;;;;;;8.50;3.50;;;;;;;27.04;46.92;99226.95;2129556;83;20939;-79
2021/08/10 07:30:21;;;;;;;5.30;3.42;;;;;;;27.09;46.98;99235.63;2129259;83;20959;-81
2021/08/10 07:36:24;;;;;;;8.08;3.98;;;;;;;27.39;45.30;99230.55;2167444;81;21058;-80
2021/08/10 07:39:25;;;;;;;6.28;2.87;;;;;;;27.38;45.10;99233.31;2172348;81;21007;-79
2021/08/10 07:42:25;;;;;;;6.00;2.33;;;;;;;27.50;44.97;99232.69;2171991;81;21040;-82
2021/08/10 07:45:26;;;;;;;4.78;2.27;;;;;;;27.52;43.93;99235.69;2173411;81;20992;-82
2021/08/10 07:48:26;;;;;;;6.10;2.45;;;;;;;27.55;43.52;99231.98;2172329;81;20961;-83
2021/08/10 07:51:27;;;;;;;12.80;3.67;;;;;;;27.69;43.68;99232.64;2171086;82;21380;-84
2021/08/10 07:54:27;;;;;;;9.25;3.10;;;;;;;27.83;42.74;99228.33;2171780;81;21224;-79
2021/08/10 07:57:28;;;;;;;9.53;3.17;;;;;;;27.94;41.56;99230.92;2171942;82;21019;-82
2021/08/10 08:00:28;;;;;;;26.77;4.87;;;;;;;28.01;40.85;99228.30;2173637;81;20972;-80
2021/08/10 08:03:29;;;;;;;11.93;3.33;;;;;;;27.93;41.38;99222.48;2171604;82;20989;-81
2021/08/10 08:06:29;;;;;;;8.35;3.05;;;;;;;27.93;41.97;99226.03;2170046;81;20971;-82
2021/08/10 08:09:33;;;;;;;24.05;4.90;;;;;;;28.09;41.62;99228.77;2170484;82;21079;-81
2021/08/10 08:12:33;;;;;;;9.60;2.98;;;;;;;28.15;39.63;99225.27;2170687;81;20992;-81
2021/08/10 08:15:34;;;;;;;7.70;3.20;;;;;;;28.07;38.99;99217.24;2172152;82;20945;-81
2021/08/10 08:18:35;;;;;;;4.78;2.52;;;;;;;28.10;39.92;99219.77;2169939;82;21040;-79
2021/08/10 08:21:36;;;;;;;4.42;2.22;;;;;;;28.09;40.44;99222.92;2170034;82;20928;-80
2021/08/10 08:24:36;;;;;;;3.95;2.10;;;;;;;28.16;39.93;99220.77;2170011;82;20984;-82
2021/08/10 08:27:37;;;;;;;4.80;2.30;;;;;;;28.37;39.55;99212.06;2170201;81;21047;-81
2021/08/10 08:30:40;;;;;;;3.77;2.35;;;;;;;28.47;39.64;99209.26;2169782;81;21393;-79
2021/08/10 08:33:41;;;;;;;6.67;2.30;;;;;;;28.58;39.55;99204.63;2170985;82;21008;-80
2021/08/10 08:36:42;;;;;;;3.10;2.27;;;;;;;28.62;38.41;99209.78;2171006;81;21003;-81
2021/08/10 08:39:43;;;;;;;3.63;2.60;;;;;;;28.73;38.37;99204.67;2170496;82;21083;-80
2021/08/10 08:42:44;;;;;;;5.92;2.50;;;;;;;28.83;38.52;99200.98;2170989;82;21044;-80
2021/08/10 08:45:44;;;;;;;3.75;2.35;;;;;;;28.84;38.36;99198.24;2171217;82;21004;-81
2021/08/10 08:48:46;;;;;;;6.95;2.50;;;;;;;28.99;38.59;99190.25;2171084;81;21031;-79
2021/08/10 08:51:46;;;;;;;6.97;2.70;;;;;;;29.18;38.43;99193.13;2172534;81;20925;-80
2021/08/10 08:54:47;;;;;;;7.58;2.70;;;;;;;29.17;37.65;99191.39;2172565;81;20963;-82
2021/08/10 08:57:50;;;;;;;11.90;3.05;;;;;;;29.18;38.20;99189.56;2170834;82;21414;-79
2021/08/10 09:00:50;;;;;;;5.67;2.72;;;;;;;29.27;37.82;99188.16;2170422;82;20957;-80
2021/08/10 09:03:51;;;;;;;7.10;2.90;;;;;;;29.41;37.60;99186.86;2170908;81;21004;-80
2021/08/10 09:06:51;;;;;;;6.60;2.60;;;;;;;29.39;37.43;99185.61;2171041;81;20982;-83
2021/08/10 09:09:56;;;;;;;29.40;5.70;;;;;;;29.51;37.79;99178.69;2170079;81;21421;-80
2021/08/10 09:12:54;;;;;;;17.57;3.60;;;;;;;29.58;38.38;99178.70;2126135;84;21366;-80
2021/08/10 09:15:55;;;;;;;8.90;3.02;;;;;;;29.32;39.02;99182.89;2128382;84;20967;-79
2021/08/10 09:18:55;;;;;;;4.60;3.20;;;;;;;29.58;38.75;99186.78;2127823;84;20940;-81
2021/08/10 09:21:56;;;;;;;5.78;2.87;;;;;;;29.88;38.29;99179.14;2128517;84;21459;-81
2021/08/10 09:24:56;;;;;;;7.97;3.10;;;;;;;29.92;38.21;99168.56;2128898;84;20980;-78
2021/08/10 09:27:57;;;;;;;6.65;2.65;;;;;;;30.29;36.72;99172.05;2128885;84;20967;-83
2021/08/10 09:30:57;;;;;;;4.20;2.58;;;;;;;30.28;37.38;99162.24;2128727;84;20968;-82
2021/08/10 09:33:58;;;;;;;12.53;3.45;;;;;;;30.02;37.49;99165.72;2127938;84;20991;-80
2021/08/10 09:36:59;;;;;;;33.28;4.92;;;;;;;29.68;38.06;99156.15;2128340;84;21292;-79
2021/08/10 09:39:59;;;;;;;13.58;3.58;;;;;;;29.38;38.73;99153.43;2128773;84;20959;-81
2021/08/10 09:43:00;;;;;;;8.33;3.20;;;;;;;29.13;39.18;99148.66;2127770;83;21392;-80
2021/08/10 09:49:03;;;;;;;22.07;3.50;;;;;;;29.47;39.09;99143.02;2119209;84;21375;-80
2021/08/10 09:52:03;;;;;;;18.42;3.35;;;;;;;29.85;38.56;99133.09;2127977;84;21007;-83
2021/08/10 09:55:04;;;;;;;6.75;3.12;;;;;;;30.24;37.92;99137.83;2128823;84;20962;-81
2021/08/10 09:58:04;;;;;;;7.30;2.70;;;;;;;30.13;37.01;99138.13;2128445;84;20948;-81
2021/08/10 10:01:05;;;;;;;6.65;2.85;;;;;;;30.04;36.68;99132.84;2129297;84;20992;-82
2021/08/10 10:04:08;;;;;;;8.18;2.98;;;;;;;30.09;35.86;99132.94;2127962;84;21332;-82
2021/08/10 10:07:09;;;;;;;6.53;2.95;;;;;;;29.68;36.63;99128.77;2128431;83;20917;-82
2021/08/10 10:10:09;;;;;;;4.17;2.60;;;;;;;29.70;37.03;99117.91;2128061;84;21438;-81
2021/08/10 10:13:10;;;;;;;4.05;2.77;;;;;;;29.78;36.57;99120.51;2127865;83;21375;-80
2021/08/10 10:16:10;;;;;;;4.22;2.65;;;;;;;29.73;36.52;99118.59;2127626;84;20995;-81
2021/08/10 10:19:11;;;;;;;10.30;3.00;;;;;;;29.72;36.88;99117.34;2126397;83;21056;-80
2021/08/10 10:22:15;;;;;;;5.10;2.70;;;;;;;29.39;36.76;99110.31;2127076;83;20971;-81
2021/08/10 10:25:15;;;;;;;8.13;2.98;;;;;;;29.20;37.62;99114.20;2127167;83;20998;-82
2021/08/10 10:28:16;;;;;;;10.28;3.40;;;;;;;29.18;38.13;99104.41;2126821;83;20960;-81
2021/08/10 10:31:16;;;;;;;12.35;2.98;;;;;;;29.41;38.73;99101.67;2125338;83;21008;-80
2021/08/10 10:34:17;;;;;;;16.85;3.77;;;;;;;29.56;38.89;99102.63;2127886;83;20967;-83
2021/08/10 10:37:17;;;;;;;2.90;2.35;;;;;;;29.57;39.51;99104.36;2127737;84;20988;-82
2021/08/10 10:40:18;;;;;;;2.52;2.33;;;;;;;29.63;38.82;99089.19;2127615;84;21374;-82
2021/08/10 10:43:18;;;;;;;2.52;2.33;;;;;;;29.76;36.78;99097.35;2127241;83;21074;-82
2021/08/10 10:46:19;;;;;;;17.60;3.02;;;;;;;29.95;36.71;99101.96;2126094;83;20944;-82
2021/08/10 10:49:19;;;;;;;11.90;3.12;;;;;;;29.90;36.61;99099.17;2128104;84;20972;-82
2021/08/10 10:52:20;;;;;;;2.83;2.37;;;;;;;29.78;36.61;99095.44;2129229;83;20999;-82
2021/08/10 10:55:20;;;;;;;5.00;2.50;;;;;;;30.07;35.85;99095.83;2126917;84;20944;-80
2021/08/10 10:58:21;;;;;;;6.40;2.70;;;;;;;30.38;35.74;99096.09;2125995;83;20959;-80
2021/08/10 11:01:22;;;;;;;10.98;3.10;;;;;;;30.84;35.28;99096.26;2126242;84;20975;-81
2021/08/10 11:04:23;;;;;;;6.87;2.70;;;;;;;30.84;34.60;99098.95;2126650;83;21454;-85
2021/08/10 11:07:23;;;;;;;10.23;2.83;;;;;;;30.68;35.19;99088.33;2127094;83;21019;-81
2021/08/10 11:10:24;;;;;;;5.60;2.58;;;;;;;30.91;34.79;99090.83;2127061;84;20975;-81
2021/08/10 11:13:24;;;;;;;5.90;2.72;;;;;;;31.11;34.45;99088.13;2127245;83;21649;-81
2021/08/10 11:16:27;;;;;;;3.10;2.80;;;;;;;30.61;35.16;99086.53;2127898;84;20976;-81
2021/08/10 11:19:27;;;;;;;2.77;2.58;;;;;;;30.82;35.09;99082.89;2171784;81;21004;-81
2021/08/10 11:22:28;;;;;;;4.60;2.42;;;;;;;30.69;35.37;99079.28;2169695;81;20976;-83
2021/08/10 11:25:28;;;;;;;7.08;2.80;;;;;;;30.57;35.54;99074.20;2172201;82;21003;-80
2021/08/10 11:28:29;;;;;;;4.55;2.42;;;;;;;30.38;35.83;99079.94;2170438;81;21034;-82
2021/08/10 11:31:29;;;;;;;4.42;2.70;;;;;;;30.51;36.37;99068.35;2170339;82;21041;-82
2021/08/10 11:34:30;;;;;;;18.20;3.08;;;;;;;30.74;35.48;99067.72;2171264;81;20984;-81
2021/08/10 11:37:30;;;;;;;5.12;2.55;;;;;;;30.68;35.38;99071.69;2171762;81;21007;-82
2021/08/10 11:40:37;;;;;;;7.80;2.60;;;;;;;30.48;36.15;99066.73;2171066;81;21004;-82
2021/08/10 11:43:37;;;;;;;4.00;2.37;;;;;;;30.28;36.38;99062.62;2171237;81;20965;-84
2021/08/10 11:46:38;;;;;;;3.67;2.47;;;;;;;30.19;37.15;99053.80;2173022;82;21004;-82
2021/08/10 11:49:38;;;;;;;2.98;2.72;;;;;;;29.70;37.38;99052.87;2173404;81;20949;-83
2021/08/10 11:52:39;;;;;;;4.53;2.60;;;;;;;29.52;37.86;99052.67;2173499;82;20949;-83
2021/08/10 11:55:39;;;;;;;2.70;2.50;;;;;;;29.45;37.99;99048.13;2172813;81;21412;-83
2021/08/10 11:58:40;;;;;;;3.22;2.60;;;;;;;29.40;38.32;99042.14;2173269;81;20941;-83
2021/08/10 12:01:41;;;;;;;5.87;2.70;;;;;;;29.51;38.02;99036.16;2173541;81;21001;-81
2021/08/10 12:04:42;;;;;;;4.67;2.85;;;;;;;29.84;38.44;99039.89;2172061;81;21034;-79
2021/08/10 12:07:42;;;;;;;3.35;2.52;;;;;;;30.14;37.08;99022.27;2170831;81;20940;-80
2021/08/10 12:10:43;;;;;;;5.70;3.10;;;;;;;30.42;36.55;99021.34;2171209;82;21312;-80
2021/08/10 12:13:44;;;;;;;4.25;2.80;;;;;;;30.48;35.59;99020.94;2171866;81;21043;-80
2021/08/10 12:16:44;;;;;;;8.18;3.35;;;;;;;30.52;36.42;99018.91;2172294;81;20971;-78
2021/08/10 12:19:45;;;;;;;7.37;3.00;;;;;;;30.31;36.49;99005.88;2172512;82;21016;-81
2021/08/10 12:22:45;;;;;;;5.65;3.05;;;;;;;30.37;36.67;98999.25;2172939;81;20986;-80
2021/08/10 12:25:46;;;;;;;3.47;3.17;;;;;;;30.28;37.03;98985.02;2173385;81;20980;-82
2021/08/10 12:28:46;;;;;;;3.40;2.80;;;;;;;29.96;37.52;98984.41;2173234;81;21007;-78
2021/08/10 12:31:47;;;;;;;8.73;3.10;;;;;;;29.96;37.34;98980.37;2172020;81;20983;-81
2021/08/10 12:34:47;;;;;;;22.00;4.83;;;;;;;29.82;37.29;98975.02;2171993;82;20968;-79
2021/08/10 12:37:48;;;;;;;12.95;3.15;;;;;;;29.94;37.05;98973.75;2172631;81;20968;-79
2021/08/10 12:40:49;;;;;;;4.05;2.92;;;;;;;29.95;36.12;98967.88;2172601;82;20971;-80
2021/08/10 12:43:50;;;;;;;4.97;2.70;;;;;;;29.89;36.64;98970.97;2170157;81;21023;-79
2021/08/10 12:46:50;;;;;;;5.90;3.35;;;;;;;29.70;37.06;98966.78;2169722;81;20944;-79
2021/08/10 12:49:52;;;;;;;4.37;2.67;;;;;;;29.39;37.84;98968.29;2169714;81;20972;-79
2021/08/10 12:52:59;;;;;;;7.37;2.72;;;;;;;29.61;37.71;98968.72;2129092;84;21332;-78
2021/08/10 12:56:06;;;;;;;3.15;2.80;;;;;;;29.76;36.99;98960.14;2114409;84;20948;-80
2021/08/10 12:59:06;;;;;;;4.08;2.52;;;;;;;29.44;37.18;98961.69;2128496;84;20944;-81
2021/08/10 13:02:07;;;;;;;4.35;2.92;;;;;;;29.62;36.43;98952.97;2129640;84;20968;-79
2021/08/10 13:05:11;;;;;;;31.15;4.90;;;;;;;29.92;36.32;98948.77;2128521;84;20984;-79
2021/08/10 13:08:11;;;;;;;5.60;2.70;;;;;;;30.08;35.80;98938.75;2128862;84;21006;-81
2021/08/10 13:11:12;;;;;;;6.80;2.98;;;;;;;30.43;35.15;98940.94;2128788;84;20972;-80
2021/08/10 13:14:12;;;;;;;10.93;2.83;;;;;;;30.68;34.15;98928.03;2128304;84;21015;-79
2021/08/10 13:17:13;;;;;;;5.15;2.62;;;;;;;30.68;33.69;98923.50;2129088;84;21385;-79
2021/08/10 13:20:13;;;;;;;4.87;2.85;;;;;;;30.18;33.88;98921.50;2128994;84;20988;-80
2021/08/10 13:23:14;;;;;;;6.83;2.98;;;;;;;30.23;33.46;98919.36;2129590;84;21004;-81
2021/08/10 13:26:15;;;;;;;9.45;2.80;;;;;;;30.35;33.20;98917.22;2129450;84;20976;-79
2021/08/10 13:29:15;;;;;;;9.55;2.80;;;;;;;30.29;33.12;98905.48;2128083;84;20972;-80
2021/08/10 13:32:16;;;;;;;9.30;2.70;;;;;;;30.49;33.52;98899.25;2129407;84;20972;-80
2021/08/10 13:35:17;;;;;;;9.10;3.02;;;;;;;30.42;33.12;98888.91;2128975;84;20980;-79
2021/08/10 13:38:17;;;;;;;5.35;2.83;;;;;;;30.25;33.55;98895.03;2128447;84;20983;-78
2021/08/10 13:41:18;;;;;;;13.70;3.08;;;;;;;30.31;34.01;98877.11;2128289;84;20956;-80
2021/08/10 13:44:18;;;;;;;3.70;2.75;;;;;;;30.05;34.21;98883.77;2128322;84;21360;-80
2021/08/10 13:47:19;;;;;;;3.33;2.47;;;;;;;29.92;34.61;98884.18;2129185;83;20991;-80
2021/08/10 13:50:19;;;;;;;4.75;2.90;;;;;;;30.03;35.07;98873.59;2128843;84;20936;-80
2021/08/10 13:53:20;;;;;;;8.43;2.92;;;;;;;30.03;34.29;98862.83;2127879;84;20936;-80
2021/08/10 13:56:20;;;;;;;7.70;2.80;;;;;;;30.16;34.69;98866.90;2128754;84;20952;-80
2021/08/10 13:59:21;;;;;;;4.55;2.75;;;;;;;30.20;34.66;98858.13;2128137;84;20944;-80
2021/08/10 14:02:22;;;;;;;6.70;2.90;;;;;;;30.35;34.70;98852.59;2127935;84;21000;-80
2021/08/10 14:05:23;;;;;;;5.90;3.47;;;;;;;30.51;34.50;98848.35;2128376;83;21062;-79
2021/08/10 14:08:23;;;;;;;12.07;3.60;;;;;;;30.38;34.88;98848.34;2126764;83;20968;-79
2021/08/10 14:11:24;;;;;;;6.95;2.80;;;;;;;30.22;34.18;98844.08;2126989;84;20928;-77